createdAt,value
2023-01-27T00:00:23.524Z,14.85
2023-01-27T00:01:25.743Z,20.50
2023-01-27T00:02:30.443Z,19.15
2023-01-27T00:03:32.990Z,18.45
2023-01-27T00:04:41.156Z,15.52
2023-01-27T00:05:43.173Z,16.98
2023-01-27T00:06:48.216Z,17.67
2023-01-27T00:07:50.596Z,19.80
2023-01-27T00:08:55.303Z,17.88
2023-01-27T00:09:57.344Z,17.20
2023-01-27T00:11:14.833Z,17.30
2023-01-27T00:12:35.195Z,19.33
2023-01-27T00:13:39.896Z,18.63
2023-01-27T00:14:41.931Z,18.92
2023-01-27T00:15:46.713Z,20.25
2023-01-27T00:16:48.739Z,19.17
2023-01-27T00:17:53.341Z,19.48
2023-01-27T00:18:58.221Z,16.02
2023-01-27T00:20:04.136Z,17.70
2023-01-27T00:21:21.745Z,21.02
2023-01-27T00:22:38.926Z,18.20
2023-01-27T00:23:56.085Z,18.60
2023-01-27T00:25:00.733Z,18.73
2023-01-27T00:26:06.575Z,16.23
2023-01-27T00:27:12.814Z,20.38
2023-01-27T00:28:22.971Z,20.17
2023-01-27T00:29:27.721Z,19.77
2023-01-27T00:30:29.851Z,19.40
2023-01-27T00:31:47.050Z,19.95
2023-01-27T00:33:04.315Z,21.23
2023-01-27T00:34:11.944Z,19.50
2023-01-27T00:35:16.937Z,17.95
2023-01-27T00:36:21.769Z,19.80
2023-01-27T00:37:23.773Z,18.92
2023-01-27T00:38:29.147Z,18.45
2023-01-27T00:39:31.154Z,19.92
2023-01-27T00:40:36.008Z,17.80
2023-01-27T00:41:39.221Z,15.98
2023-01-27T00:42:43.898Z,14.43
2023-01-27T00:43:46.363Z,19.48
2023-01-27T00:45:03.302Z,17.15
2023-01-27T00:46:08.242Z,17.52
2023-01-27T00:47:13.026Z,15.63
2023-01-27T00:48:15.343Z,17.33
2023-01-27T00:49:20.220Z,16.23
2023-01-27T00:50:25.043Z,19.02
2023-01-27T00:51:29.800Z,18.42
2023-01-27T00:52:31.811Z,17.15
2023-01-27T00:53:36.525Z,16.20
2023-01-27T00:54:38.529Z,18.17
2023-01-27T00:55:43.163Z,17.30
2023-01-27T00:56:45.219Z,16.30
2023-01-27T00:57:49.957Z,16.35
2023-01-27T00:58:51.955Z,22.10
2023-01-27T00:59:59.535Z,20.38
2023-01-27T01:01:05.241Z,19.85
2023-01-27T01:02:10.022Z,19.73
2023-01-27T01:03:12.135Z,20.98
2023-01-27T01:04:16.854Z,21.75
2023-01-27T01:05:18.874Z,19.20
2023-01-27T01:06:26.610Z,19.80
2023-01-27T01:07:28.842Z,18.38
2023-01-27T01:08:34.275Z,16.95
2023-01-27T01:09:36.288Z,18.60
2023-01-27T01:10:41.566Z,21.70
2023-01-27T01:11:43.669Z,19.52
2023-01-27T01:12:48.596Z,20.60
2023-01-27T01:13:50.626Z,22.92
2023-01-27T01:14:55.344Z,20.35
2023-01-27T01:15:57.583Z,21.25
2023-01-27T01:17:02.205Z,21.77
2023-01-27T01:18:04.855Z,21.10
2023-01-27T01:19:09.611Z,20.48
2023-01-27T01:20:13.017Z,20.30
2023-01-27T01:21:19.070Z,18.17
2023-01-27T01:22:23.870Z,19.50
2023-01-27T01:23:28.593Z,21.88
2023-01-27T01:24:30.653Z,21.60
2023-01-27T01:25:35.464Z,23.45
2023-01-27T01:26:37.620Z,20.45
2023-01-27T01:27:42.815Z,21.13
2023-01-27T01:28:45.719Z,21.88
2023-01-27T01:29:50.297Z,19.83
2023-01-27T01:30:52.410Z,20.73
2023-01-27T01:31:57.042Z,22.40
2023-01-27T01:32:59.165Z,24.10
2023-01-27T01:34:03.775Z,22.25
2023-01-27T01:35:06.406Z,24.67
2023-01-27T01:36:13.718Z,23.42
2023-01-27T01:37:15.694Z,24.25
2023-01-27T01:38:23.211Z,22.48
2023-01-27T01:39:25.220Z,22.17
2023-01-27T01:40:30.458Z,23.83
2023-01-27T01:41:35.211Z,20.70
2023-01-27T01:42:56.228Z,22.38
2023-01-27T01:44:00.931Z,22.15
2023-01-27T01:45:44.582Z,23.55
2023-01-27T01:46:49.444Z,26.15
2023-01-27T01:47:51.458Z,21.27
2023-01-27T01:48:59.458Z,20.75
2023-01-27T01:52:29.250Z,28.90
2023-01-27T01:53:37.458Z,21.52
2023-01-27T01:54:47.091Z,24.00
2023-01-27T01:55:49.442Z,26.73
2023-01-27T01:56:58.695Z,22.70
2023-01-27T01:58:01.060Z,22.35
2023-01-27T01:59:08.887Z,22.95
2023-01-27T02:00:13.256Z,26.75
2023-01-27T02:01:20.217Z,24.67
2023-01-27T02:02:26.403Z,22.48
2023-01-27T02:03:33.203Z,23.63
2023-01-27T02:04:42.175Z,23.92
2023-01-27T02:05:45.564Z,21.98
2023-01-27T02:07:01.629Z,22.40
2023-01-27T02:08:08.490Z,21.48
2023-01-27T02:09:15.920Z,22.75
2023-01-27T02:10:18.174Z,22.77
2023-01-27T02:11:23.093Z,21.83
2023-01-27T02:12:25.091Z,22.25
2023-01-27T02:13:29.936Z,21.27
2023-01-27T02:14:32.194Z,19.90
2023-01-27T02:15:37.860Z,21.55
2023-01-27T02:16:43.656Z,18.73
2023-01-27T02:17:45.833Z,19.08
2023-01-27T02:18:50.681Z,21.20
2023-01-27T02:20:01.646Z,22.25
2023-01-27T02:21:07.709Z,21.00
2023-01-27T02:22:15.067Z,20.77
2023-01-27T02:23:39.768Z,23.67
2023-01-27T02:24:50.246Z,21.90
2023-01-27T02:26:03.721Z,21.50
2023-01-27T02:27:06.134Z,24.75
2023-01-27T02:28:11.689Z,22.90
2023-01-27T02:29:16.010Z,20.15
2023-01-27T02:30:21.754Z,18.67
2023-01-27T02:31:24.670Z,16.55
2023-01-27T02:32:30.295Z,20.05
2023-01-27T02:33:32.367Z,19.25
2023-01-27T02:34:41.155Z,21.90
2023-01-27T02:35:47.517Z,19.63
2023-01-27T02:36:54.383Z,22.00
2023-01-27T02:37:57.842Z,21.48
2023-01-27T02:39:04.733Z,22.35
2023-01-27T02:40:09.566Z,22.73
2023-01-27T02:41:21.442Z,17.85
2023-01-27T02:42:24.177Z,21.33
2023-01-27T02:43:28.878Z,23.80
2023-01-27T02:44:30.948Z,19.23
2023-01-27T02:45:35.904Z,19.05
2023-01-27T02:46:38.111Z,20.92
2023-01-27T02:47:42.852Z,18.13
2023-01-27T02:48:45.148Z,17.80
2023-01-27T02:49:50.027Z,19.40
2023-01-27T02:50:52.257Z,16.50
2023-01-27T02:51:57.192Z,17.60
2023-01-27T02:52:59.176Z,17.63
2023-01-27T02:54:03.835Z,20.48
2023-01-27T02:55:07.397Z,24.45
2023-01-27T02:56:11.995Z,20.52
2023-01-27T02:57:16.619Z,20.95
2023-01-27T02:58:21.286Z,21.48
2023-01-27T02:59:23.606Z,20.70
2023-01-27T03:00:28.334Z,18.85
2023-01-27T03:01:32.832Z,22.33
2023-01-27T03:02:37.664Z,17.27
2023-01-27T03:03:44.429Z,18.90
2023-01-27T03:04:49.288Z,19.52
2023-01-27T03:05:51.811Z,19.45
2023-01-27T03:06:56.859Z,18.88
2023-01-27T03:07:58.874Z,20.75
2023-01-27T03:09:03.484Z,19.48
2023-01-27T03:10:06.998Z,20.70
2023-01-27T03:11:13.199Z,21.23
2023-01-27T03:12:20.775Z,18.15
2023-01-27T03:13:25.728Z,18.35
2023-01-27T03:14:42.782Z,21.00
2023-01-27T03:15:59.884Z,20.60
2023-01-27T03:17:17.183Z,20.42
2023-01-27T03:18:22.913Z,17.60
2023-01-27T03:19:27.002Z,22.33
2023-01-27T03:20:31.964Z,19.00
2023-01-27T03:21:34.143Z,18.83
2023-01-27T03:22:38.850Z,19.73
2023-01-27T03:23:45.913Z,21.42
2023-01-27T03:24:47.943Z,22.55
2023-01-27T03:25:52.816Z,17.00
2023-01-27T03:26:54.806Z,18.02
2023-01-27T03:28:02.929Z,19.38
2023-01-27T03:29:20.209Z,18.55
2023-01-27T03:30:24.852Z,15.10
2023-01-27T03:31:27.112Z,16.10
2023-01-27T03:32:34.403Z,20.70
2023-01-27T03:33:36.628Z,21.83
2023-01-27T03:34:41.271Z,20.38
2023-01-27T03:35:48.728Z,22.45
2023-01-27T03:37:06.112Z,18.75
2023-01-27T03:38:28.057Z,20.85
2023-01-27T03:41:02.962Z,20.25
2023-01-27T03:42:20.061Z,19.27
2023-01-27T03:43:39.795Z,22.92
2023-01-27T03:44:56.883Z,21.33
2023-01-27T03:46:14.077Z,22.83
2023-01-27T03:47:18.678Z,19.70
2023-01-27T03:48:21.125Z,26.05
2023-01-27T03:49:25.875Z,26.02
2023-01-27T03:50:38.180Z,26.80
2023-01-27T03:51:43.061Z,21.35
2023-01-27T03:53:03.225Z,23.50
2023-01-27T03:54:09.912Z,25.15
2023-01-27T03:55:12.188Z,27.77
2023-01-27T03:56:19.511Z,26.65
2023-01-27T03:57:21.655Z,31.42
2023-01-27T03:58:30.697Z,27.27
2023-01-27T03:59:32.918Z,30.15
2023-01-27T04:00:38.183Z,27.85
2023-01-27T04:01:44.420Z,32.20
2023-01-27T04:03:01.569Z,24.25
2023-01-27T04:04:18.739Z,24.02
2023-01-27T04:05:35.832Z,27.45
2023-01-27T04:06:59.174Z,23.42
2023-01-27T04:08:01.165Z,24.55
2023-01-27T04:09:06.496Z,23.77
2023-01-27T04:10:10.180Z,22.02
2023-01-27T04:11:27.324Z,22.92
2023-01-27T04:12:32.501Z,19.70
2023-01-27T04:13:37.458Z,18.92
2023-01-27T04:14:43.980Z,20.77
2023-01-27T04:15:46.058Z,22.60
2023-01-27T04:16:50.949Z,21.10
2023-01-27T04:17:53.086Z,22.05
2023-01-27T04:18:58.105Z,17.67
2023-01-27T04:20:02.892Z,24.60
2023-01-27T04:21:05.427Z,21.27
2023-01-27T04:22:11.199Z,20.02
2023-01-27T04:23:13.528Z,21.05
2023-01-27T04:24:25.300Z,20.15
2023-01-27T04:25:27.567Z,23.17
2023-01-27T04:26:34.714Z,25.08
2023-01-27T04:27:39.504Z,20.48
2023-01-27T04:28:45.021Z,22.80
2023-01-27T04:29:49.959Z,21.38
2023-01-27T04:30:52.065Z,23.25
2023-01-27T04:31:58.082Z,24.13
2023-01-27T04:33:02.680Z,23.85
2023-01-27T04:34:07.486Z,21.80
2023-01-27T04:35:12.704Z,22.40
2023-01-27T04:36:17.630Z,17.48
2023-01-27T04:37:22.356Z,24.20
2023-01-27T04:38:24.542Z,22.58
2023-01-27T04:39:29.576Z,21.48
2023-01-27T04:40:31.795Z,22.33
2023-01-27T04:41:36.534Z,21.58
2023-01-27T04:42:38.546Z,23.95
2023-01-27T04:43:43.205Z,23.30
2023-01-27T04:44:50.414Z,25.05
2023-01-27T04:45:52.459Z,25.27
2023-01-27T04:46:57.263Z,21.58
2023-01-27T04:47:59.257Z,23.98
2023-01-27T04:49:04.190Z,23.10
2023-01-27T04:50:07.094Z,22.17
2023-01-27T04:51:11.750Z,23.33
2023-01-27T04:52:16.354Z,20.00
2023-01-27T04:53:18.441Z,24.48
2023-01-27T04:54:23.041Z,30.23
2023-01-27T04:55:25.242Z,21.95
2023-01-27T04:56:32.927Z,23.00
2023-01-27T04:57:34.938Z,24.88
2023-01-27T04:58:39.752Z,24.75
2023-01-27T04:59:44.424Z,22.58
2023-01-27T05:00:49.109Z,22.70
2023-01-27T05:01:53.895Z,25.80
2023-01-27T05:02:55.925Z,28.23
2023-01-27T05:04:00.988Z,29.08
2023-01-27T05:05:04.810Z,27.17
2023-01-27T05:06:10.141Z,26.92
2023-01-27T05:07:12.261Z,29.77
2023-01-27T05:08:16.957Z,27.38
2023-01-27T05:09:21.750Z,28.13
2023-01-27T05:10:23.754Z,31.80
2023-01-27T05:11:28.707Z,28.38
2023-01-27T05:12:30.875Z,32.30
2023-01-27T05:13:35.850Z,33.78
2023-01-27T05:14:37.962Z,26.48
2023-01-27T05:15:42.834Z,27.92
2023-01-27T05:16:50.466Z,32.28
2023-01-27T05:17:52.983Z,31.63
2023-01-27T05:18:57.833Z,31.63
2023-01-27T05:19:59.870Z,32.30
2023-01-27T05:21:05.380Z,31.83
2023-01-27T05:22:07.733Z,30.33
2023-01-27T05:23:25.088Z,27.95
2023-01-27T05:24:29.806Z,34.08
2023-01-27T05:25:31.974Z,32.08
2023-01-27T05:26:36.869Z,30.60
2023-01-27T05:27:38.910Z,31.30
2023-01-27T05:28:45.021Z,31.35
2023-01-27T05:29:47.034Z,31.90
2023-01-27T05:30:51.740Z,36.33
2023-01-27T05:31:59.219Z,27.50
2023-01-27T05:33:01.313Z,35.45
2023-01-27T05:34:06.032Z,31.08
2023-01-27T05:35:08.769Z,29.08
2023-01-27T05:36:16.405Z,32.70
2023-01-27T05:37:18.534Z,30.92
2023-01-27T05:38:23.151Z,27.65
2023-01-27T05:39:27.939Z,27.13
2023-01-27T05:40:30.334Z,32.67
2023-01-27T05:41:35.127Z,31.38
2023-01-27T05:42:37.237Z,28.33
2023-01-27T05:43:43.605Z,28.27
2023-01-27T05:44:45.786Z,27.17
2023-01-27T05:45:50.637Z,33.90
2023-01-27T05:46:55.320Z,31.33
2023-01-27T05:48:00.023Z,30.85
2023-01-27T05:49:04.407Z,31.95
2023-01-27T05:50:10.478Z,32.33
2023-01-27T05:51:15.055Z,28.02
2023-01-27T05:52:19.945Z,32.22
2023-01-27T05:53:23.084Z,37.10
2023-01-27T05:54:27.953Z,29.27
2023-01-27T05:55:29.998Z,34.20
2023-01-27T05:56:35.223Z,32.50
2023-01-27T05:57:37.221Z,32.95
2023-01-27T05:58:42.364Z,28.00
2023-01-27T05:59:44.366Z,34.50
2023-01-27T06:00:49.526Z,28.17
2023-01-27T06:01:54.202Z,31.50
2023-01-27T06:02:58.831Z,32.63
2023-01-27T06:04:04.034Z,27.73
2023-01-27T06:05:07.014Z,33.67
2023-01-27T06:06:13.138Z,30.15
2023-01-27T06:07:15.279Z,27.23
2023-01-27T06:08:20.270Z,31.67
2023-01-27T06:09:25.099Z,30.98
2023-01-27T06:10:27.132Z,34.80
2023-01-27T06:11:31.830Z,33.28
2023-01-27T06:12:33.953Z,32.13
2023-01-27T06:13:39.104Z,37.03
2023-01-27T06:14:41.232Z,31.77
2023-01-27T06:15:48.075Z,36.05
2023-01-27T06:16:50.150Z,40.85
2023-01-27T06:17:54.952Z,38.35
2023-01-27T06:19:02.604Z,44.22
2023-01-27T06:20:05.989Z,37.75
2023-01-27T06:21:13.383Z,41.15
2023-01-27T06:22:15.607Z,43.30
2023-01-27T06:23:20.721Z,39.70
2023-01-27T06:24:24.248Z,42.38
2023-01-27T06:25:29.040Z,40.20
2023-01-27T06:26:31.128Z,40.42
2023-01-27T06:27:35.979Z,41.08
2023-01-27T06:28:38.897Z,45.47
2023-01-27T06:29:43.685Z,47.95
2023-01-27T06:30:45.828Z,46.13
2023-01-27T06:31:50.762Z,39.65
2023-01-27T06:32:52.819Z,47.40
2023-01-27T06:33:57.501Z,48.03
2023-01-27T06:35:02.149Z,46.15
2023-01-27T06:36:09.392Z,49.28
2023-01-27T06:37:11.542Z,46.17
2023-01-27T06:38:16.939Z,45.60
2023-01-27T06:39:19.104Z,45.42
2023-01-27T06:40:24.113Z,48.42
2023-01-27T06:41:26.223Z,44.13
2023-01-27T06:42:31.083Z,43.67
2023-01-27T06:43:36.471Z,49.10
2023-01-27T06:44:38.548Z,45.13
2023-01-27T06:45:43.843Z,51.95
2023-01-27T06:46:48.891Z,55.55
2023-01-27T06:47:56.186Z,46.00
2023-01-27T06:49:00.796Z,56.58
2023-01-27T06:50:06.059Z,50.78
2023-01-27T06:51:10.820Z,54.58
2023-01-27T06:52:12.915Z,53.92
2023-01-27T06:53:17.617Z,49.38
2023-01-27T06:54:19.694Z,52.35
2023-01-27T06:55:24.410Z,52.80
2023-01-27T06:56:29.042Z,50.63
2023-01-27T06:57:31.262Z,44.45
2023-01-27T06:58:36.053Z,51.55
2023-01-27T06:59:38.464Z,48.40
2023-01-27T07:00:44.739Z,50.05
2023-01-27T07:01:47.192Z,44.80
2023-01-27T07:02:53.880Z,43.67
2023-01-27T07:03:56.058Z,40.35
2023-01-27T07:05:00.773Z,40.70
2023-01-27T07:06:11.162Z,44.25
2023-01-27T07:07:13.409Z,43.53
2023-01-27T07:08:18.072Z,39.85
2023-01-27T07:09:20.095Z,41.80
2023-01-27T07:10:24.982Z,41.90
2023-01-27T07:11:26.996Z,42.90
2023-01-27T07:12:32.428Z,47.72
2023-01-27T07:13:37.106Z,38.08
2023-01-27T07:14:39.522Z,37.28
2023-01-27T07:15:44.676Z,50.15
2023-01-27T07:16:46.852Z,41.40
2023-01-27T07:17:51.630Z,43.75
2023-01-27T07:18:53.629Z,50.05
2023-01-27T07:19:58.353Z,49.72
2023-01-27T07:21:03.141Z,53.72
2023-01-27T07:22:10.862Z,54.75
2023-01-27T07:23:13.371Z,44.22
2023-01-27T07:24:19.167Z,53.78
2023-01-27T07:25:21.343Z,51.58
2023-01-27T07:26:27.246Z,52.30
2023-01-27T07:27:32.496Z,51.08
2023-01-27T07:28:34.464Z,48.47
2023-01-27T07:29:39.670Z,53.78
2023-01-27T07:30:43.630Z,53.20
2023-01-27T07:31:48.860Z,50.75
2023-01-27T07:32:51.014Z,51.15
2023-01-27T07:33:56.780Z,64.35
2023-01-27T07:34:58.892Z,75.15
2023-01-27T07:36:03.950Z,58.45
2023-01-27T07:37:08.655Z,53.97
2023-01-27T07:38:15.219Z,53.90
2023-01-27T07:39:20.083Z,50.28
2023-01-27T07:40:24.878Z,52.60
2023-01-27T07:41:27.032Z,52.40
2023-01-27T07:42:31.625Z,49.80
2023-01-27T07:43:36.923Z,53.50
2023-01-27T07:44:39.043Z,50.10
2023-01-27T07:45:43.815Z,52.50
2023-01-27T07:46:48.608Z,42.53
2023-01-27T07:47:53.189Z,49.00
2023-01-27T07:48:55.238Z,43.97
2023-01-27T07:49:59.893Z,42.20
2023-01-27T07:51:04.938Z,42.58
2023-01-27T07:52:12.492Z,42.25
2023-01-27T07:53:14.807Z,45.60
2023-01-27T07:54:19.703Z,42.47
2023-01-27T07:55:21.759Z,41.50
2023-01-27T07:56:27.144Z,42.03
2023-01-27T07:57:29.191Z,37.60
2023-01-27T07:58:33.764Z,39.38
2023-01-27T07:59:38.487Z,44.90
2023-01-27T08:00:43.163Z,30.40
2023-01-27T08:01:47.179Z,34.22
2023-01-27T08:02:53.448Z,33.35
2023-01-27T08:03:55.521Z,33.95
2023-01-27T08:05:00.150Z,37.20
2023-01-27T08:06:05.675Z,37.45
2023-01-27T08:07:13.360Z,36.75
2023-01-27T08:08:15.363Z,39.22
2023-01-27T08:09:20.334Z,37.70
2023-01-27T08:10:25.624Z,41.47
2023-01-27T08:11:30.460Z,36.20
2023-01-27T08:12:32.491Z,41.90
2023-01-27T08:13:38.332Z,44.10
2023-01-27T08:14:43.019Z,44.33
2023-01-27T08:15:47.926Z,42.35
2023-01-27T08:16:52.533Z,40.10
2023-01-27T08:17:55.508Z,35.65
2023-01-27T08:19:00.122Z,37.75
2023-01-27T08:20:05.799Z,34.55
2023-01-27T08:21:14.035Z,37.42
2023-01-27T08:22:23.897Z,41.22
2023-01-27T08:23:26.113Z,30.17
2023-01-27T08:24:30.748Z,32.78
2023-01-27T08:25:32.818Z,37.30
2023-01-27T08:26:37.568Z,34.15
2023-01-27T08:27:42.304Z,33.13
2023-01-27T08:28:44.538Z,40.92
2023-01-27T08:29:49.217Z,34.85
2023-01-27T08:30:52.075Z,34.40
2023-01-27T08:31:56.734Z,32.70
2023-01-27T08:33:01.360Z,31.40
2023-01-27T08:34:06.115Z,32.70
2023-01-27T08:35:08.823Z,36.25
2023-01-27T08:36:17.021Z,33.50
2023-01-27T08:37:24.261Z,30.70
2023-01-27T08:38:29.028Z,30.85
2023-01-27T08:39:31.373Z,35.13
2023-01-27T08:40:36.145Z,31.50
2023-01-27T08:41:38.686Z,31.80
2023-01-27T08:42:43.390Z,31.45
2023-01-27T08:43:45.515Z,31.20
2023-01-27T08:44:50.247Z,27.83
2023-01-27T08:45:52.627Z,29.27
2023-01-27T08:46:57.571Z,32.38
2023-01-27T08:47:59.731Z,30.42
2023-01-27T08:49:04.443Z,29.13
2023-01-27T08:50:07.509Z,29.30
2023-01-27T08:51:15.263Z,29.88
2023-01-27T08:52:20.094Z,27.42
2023-01-27T08:53:28.550Z,25.17
2023-01-27T08:54:30.806Z,32.72
2023-01-27T08:55:36.248Z,29.38
2023-01-27T08:56:40.978Z,28.15
2023-01-27T08:57:43.116Z,28.08
2023-01-27T08:58:48.840Z,29.80
2023-01-27T08:59:50.805Z,27.40
2023-01-27T09:00:55.527Z,30.58
2023-01-27T09:01:57.512Z,28.65
2023-01-27T09:03:02.459Z,30.63
2023-01-27T09:04:07.293Z,28.63
2023-01-27T09:05:09.400Z,29.42
2023-01-27T09:06:15.842Z,27.13
2023-01-27T09:07:20.810Z,30.90
2023-01-27T09:08:29.170Z,26.48
2023-01-27T09:09:33.827Z,28.63
2023-01-27T09:10:40.659Z,27.73
2023-01-27T09:11:44.294Z,30.15
2023-01-27T09:12:49.316Z,28.75
2023-01-27T09:13:54.059Z,26.25
2023-01-27T09:14:59.318Z,29.73
2023-01-27T09:16:04.139Z,28.20
2023-01-27T09:17:09.220Z,27.27
2023-01-27T09:18:14.286Z,29.20
2023-01-27T09:19:16.337Z,26.60
2023-01-27T09:20:30.952Z,33.28
2023-01-27T09:21:33.093Z,24.85
2023-01-27T09:22:39.887Z,26.20
2023-01-27T09:23:47.174Z,25.98
2023-01-27T09:24:49.252Z,25.95
2023-01-27T09:25:53.945Z,25.83
2023-01-27T09:26:56.112Z,26.45
2023-01-27T09:28:02.321Z,22.20
2023-01-27T09:29:07.041Z,24.75
2023-01-27T09:30:14.000Z,23.45
2023-01-27T09:31:16.419Z,22.95
2023-01-27T09:32:21.085Z,24.60
2023-01-27T09:33:23.111Z,25.17
2023-01-27T09:34:28.078Z,20.88
2023-01-27T09:35:39.774Z,21.45
2023-01-27T09:36:45.814Z,19.40
2023-01-27T09:37:54.546Z,20.38
2023-01-27T09:39:04.539Z,20.17
2023-01-27T09:40:20.778Z,18.52
2023-01-27T09:41:52.591Z,22.77
2023-01-27T09:43:20.929Z,20.65
2023-01-27T09:44:59.717Z,20.35
2023-01-27T09:46:32.765Z,22.35
2023-01-27T09:48:05.495Z,24.10
2023-01-27T09:49:33.214Z,26.70
2023-01-27T09:50:46.352Z,20.77
2023-01-27T09:52:02.687Z,22.52
2023-01-27T09:53:46.972Z,22.55
2023-01-27T09:55:07.488Z,20.27
2023-01-27T09:56:20.524Z,23.35
2023-01-27T09:57:37.883Z,23.02
2023-01-27T09:58:59.505Z,24.48
2023-01-27T10:00:16.546Z,18.48
2023-01-27T10:01:30.559Z,21.65
2023-01-27T10:02:51.323Z,24.98
2023-01-27T10:04:13.270Z,22.63
2023-01-27T10:05:44.909Z,24.90
2023-01-27T10:07:01.330Z,24.02
2023-01-27T10:08:19.407Z,21.33
2023-01-27T10:09:49.682Z,26.67
2023-01-27T10:11:13.951Z,20.73
2023-01-27T10:12:37.552Z,20.63
2023-01-27T10:13:58.920Z,22.08
2023-01-27T10:15:13.437Z,20.67
2023-01-27T10:16:34.645Z,18.85
2023-01-27T10:17:51.577Z,26.27
2023-01-27T10:19:13.281Z,22.33
2023-01-27T10:20:29.663Z,18.58
2023-01-27T10:21:43.392Z,27.02
2023-01-27T10:22:56.980Z,17.77
2023-01-27T10:24:08.926Z,19.10
2023-01-27T10:25:28.397Z,20.90
2023-01-27T10:26:40.732Z,19.67
2023-01-27T10:27:50.959Z,19.90
2023-01-27T10:29:01.306Z,18.88
2023-01-27T10:30:13.611Z,23.10
2023-01-27T10:31:26.878Z,20.00
2023-01-27T10:32:42.759Z,24.35
2023-01-27T10:33:51.832Z,30.58
2023-01-27T10:35:17.043Z,32.10
2023-01-27T10:36:30.231Z,28.70
2023-01-27T10:37:47.083Z,27.83
2023-01-27T10:39:00.698Z,28.27
2023-01-27T10:40:13.843Z,42.85
2023-01-27T10:41:33.047Z,21.63
2023-01-27T10:42:44.653Z,24.00
2023-01-27T10:45:13.070Z,23.00
2023-01-27T10:46:27.148Z,22.92
2023-01-27T10:47:43.126Z,22.77
2023-01-27T10:48:52.841Z,20.17
2023-01-27T10:49:59.801Z,22.45
2023-01-27T10:51:10.573Z,21.98
2023-01-27T10:52:19.433Z,22.48
2023-01-27T10:53:29.573Z,21.67
2023-01-27T10:54:39.303Z,23.55
2023-01-27T10:55:50.017Z,22.95
2023-01-27T10:56:59.814Z,21.67
2023-01-27T10:58:12.133Z,25.25
2023-01-27T10:59:25.167Z,22.55
2023-01-27T11:01:09.081Z,25.10
2023-01-27T11:02:09.124Z,23.92
2023-01-27T11:03:21.649Z,21.98
2023-01-27T11:04:36.130Z,23.10
2023-01-27T11:05:44.303Z,21.17
2023-01-27T11:06:51.948Z,23.15
2023-01-27T11:08:03.155Z,25.60
2023-01-27T11:09:15.669Z,24.50
2023-01-27T11:10:22.552Z,24.95
2023-01-27T11:11:41.056Z,29.33
2023-01-27T11:12:50.710Z,26.20
2023-01-27T11:14:04.686Z,28.00
2023-01-27T11:15:21.757Z,24.10
2023-01-27T11:16:25.699Z,25.02
2023-01-27T11:17:35.361Z,29.27
2023-01-27T11:18:38.927Z,24.02
2023-01-27T11:19:48.596Z,21.42
2023-01-27T11:20:54.603Z,21.13
2023-01-27T11:22:07.748Z,26.55
2023-01-27T11:23:20.378Z,22.70
2023-01-27T11:25:45.845Z,22.30
2023-01-27T11:26:53.815Z,23.38
2023-01-27T11:28:17.932Z,24.73
2023-01-27T11:29:34.907Z,23.65
2023-01-27T11:30:46.000Z,28.45
2023-01-27T11:32:00.161Z,31.42
2023-01-27T11:33:13.256Z,32.08
2023-01-27T11:34:24.598Z,30.35
2023-01-27T11:35:29.753Z,43.85
2023-01-27T11:36:33.425Z,35.45
2023-01-27T11:37:41.284Z,38.63
2023-01-27T11:38:46.527Z,36.25
2023-01-27T11:39:51.548Z,39.33
2023-01-27T11:40:57.113Z,34.67
2023-01-27T11:41:59.721Z,18.73
2023-01-27T11:43:06.612Z,23.83
2023-01-27T11:44:20.131Z,23.58
2023-01-27T11:45:28.437Z,21.85
2023-01-27T11:46:35.225Z,21.73
2023-01-27T11:47:42.722Z,21.70
2023-01-27T11:48:51.771Z,20.15
2023-01-27T11:49:54.579Z,22.92
2023-01-27T11:50:59.209Z,26.15
2023-01-27T11:52:05.964Z,22.23
2023-01-27T11:53:17.729Z,23.08
2023-01-27T11:54:26.399Z,23.75
2023-01-27T11:55:38.562Z,25.55
2023-01-27T11:56:46.578Z,24.20
2023-01-27T11:57:53.068Z,23.77
2023-01-27T11:59:04.423Z,24.42
2023-01-27T12:00:20.046Z,31.08
2023-01-27T12:01:48.314Z,25.27
2023-01-27T12:03:01.296Z,26.90
2023-01-27T12:04:08.311Z,24.90
2023-01-27T12:05:18.289Z,30.45
2023-01-27T12:06:34.776Z,29.83
2023-01-27T12:07:49.970Z,35.25
2023-01-27T12:09:02.378Z,31.38
2023-01-27T12:10:22.887Z,34.53
2023-01-27T12:11:29.574Z,32.35
2023-01-27T12:12:31.540Z,36.65
2023-01-27T12:13:36.782Z,35.08
2023-01-27T12:14:38.814Z,34.10
2023-01-27T12:15:51.312Z,38.33
2023-01-27T12:16:56.969Z,34.08
2023-01-27T12:18:04.195Z,35.08
2023-01-27T12:19:25.234Z,37.35
2023-01-27T12:20:35.716Z,41.17
2023-01-27T12:21:48.972Z,42.65
2023-01-27T12:22:54.264Z,43.42
2023-01-27T12:23:59.595Z,39.15
2023-01-27T12:25:07.896Z,38.22
2023-01-27T12:26:14.329Z,42.60
2023-01-27T12:27:24.816Z,45.75
2023-01-27T12:28:35.061Z,44.63
2023-01-27T12:29:42.158Z,45.85
2023-01-27T12:30:50.300Z,45.90
2023-01-27T12:32:01.267Z,48.70
2023-01-27T12:33:13.170Z,47.50
2023-01-27T12:34:28.128Z,47.70
2023-01-27T12:35:37.249Z,65.80
2023-01-27T12:36:42.400Z,53.17
2023-01-27T12:37:48.067Z,44.13
2023-01-27T12:38:55.522Z,52.33
2023-01-27T12:40:03.930Z,44.72
2023-01-27T12:41:08.374Z,43.72
2023-01-27T12:42:38.844Z,52.40
2023-01-27T12:43:54.916Z,50.45
2023-01-27T12:44:59.345Z,48.17
2023-01-27T12:46:18.571Z,52.05
2023-01-27T12:47:30.605Z,50.08
2023-01-27T12:48:34.423Z,50.38
2023-01-27T12:49:44.679Z,57.78
2023-01-27T12:51:09.072Z,55.58
2023-01-27T12:52:22.520Z,50.25
2023-01-27T12:53:27.851Z,49.10
2023-01-27T12:54:35.687Z,50.35
2023-01-27T12:55:41.581Z,52.22
2023-01-27T12:56:46.511Z,54.42
2023-01-27T12:57:51.200Z,50.20
2023-01-27T12:59:02.515Z,52.67
2023-01-27T13:00:05.884Z,56.92
2023-01-27T13:01:24.599Z,59.10
2023-01-27T13:02:36.292Z,55.92
2023-01-27T13:03:44.949Z,43.28
2023-01-27T13:04:55.216Z,55.95
2023-01-27T13:06:00.107Z,47.90
2023-01-27T13:07:10.522Z,52.30
2023-01-27T13:08:15.827Z,49.92
2023-01-27T13:09:30.518Z,47.90
2023-01-27T13:10:33.215Z,47.30
2023-01-27T13:11:41.673Z,46.05
2023-01-27T13:12:50.110Z,44.13
2023-01-27T13:13:54.734Z,48.10
2023-01-27T13:14:58.491Z,44.75
2023-01-27T13:16:11.382Z,48.47
2023-01-27T13:17:44.579Z,48.53
2023-01-27T13:18:57.069Z,46.67
2023-01-27T13:20:05.589Z,44.78
2023-01-27T13:21:16.352Z,42.20
2023-01-27T13:22:21.713Z,49.50
2023-01-27T13:23:29.592Z,51.42
2023-01-27T13:24:41.333Z,45.80
2023-01-27T13:25:50.008Z,56.95
2023-01-27T13:26:55.311Z,50.90
2023-01-27T13:27:59.875Z,46.17
2023-01-27T13:29:13.613Z,50.65
2023-01-27T13:30:24.068Z,50.13
2023-01-27T13:31:43.438Z,48.38
2023-01-27T13:32:54.548Z,45.95
2023-01-27T13:34:04.395Z,51.97
2023-01-27T13:35:22.849Z,48.10
2023-01-27T13:36:35.107Z,47.40
2023-01-27T13:37:40.868Z,48.58
2023-01-27T13:38:52.281Z,49.83
2023-01-27T13:40:05.141Z,48.13
2023-01-27T13:41:15.875Z,55.05
2023-01-27T13:42:23.805Z,55.63
2023-01-27T13:43:33.976Z,53.53
2023-01-27T13:44:42.212Z,58.22
2023-01-27T13:45:54.659Z,49.25
2023-01-27T13:47:02.147Z,50.97
2023-01-27T13:48:19.263Z,55.42
2023-01-27T13:49:33.666Z,54.97
2023-01-27T13:50:43.334Z,54.53
2023-01-27T13:51:45.693Z,51.13
2023-01-27T13:52:57.600Z,43.83
2023-01-27T13:54:02.183Z,50.92
2023-01-27T13:55:10.913Z,51.65
2023-01-27T13:56:29.624Z,50.20
2023-01-27T13:58:01.756Z,49.25
2023-01-27T13:59:22.989Z,50.35
2023-01-27T14:00:36.828Z,44.95
2023-01-27T14:01:55.441Z,51.47
2023-01-27T14:03:38.825Z,45.17
2023-01-27T14:05:05.029Z,49.20
2023-01-27T14:06:22.746Z,48.45
2023-01-27T14:07:30.618Z,50.13
2023-01-27T14:08:58.724Z,47.85
2023-01-27T14:10:18.788Z,45.53
2023-01-27T14:11:30.335Z,43.47
2023-01-27T14:13:57.357Z,44.45
2023-01-27T14:15:14.275Z,45.10
2023-01-27T14:16:23.834Z,41.55
2023-01-27T14:17:39.736Z,44.78
2023-01-27T14:18:57.380Z,42.83
2023-01-27T14:20:17.836Z,48.50
2023-01-27T14:23:11.476Z,43.58
2023-01-27T14:24:29.142Z,44.00
2023-01-27T14:25:42.490Z,42.35
2023-01-27T14:26:56.765Z,42.75
2023-01-27T14:28:10.154Z,43.38
2023-01-27T14:29:29.810Z,40.25
2023-01-27T14:30:41.699Z,38.78
2023-01-27T14:31:50.137Z,38.55
2023-01-27T14:33:06.879Z,40.95
2023-01-27T14:34:33.844Z,37.50
2023-01-27T14:35:46.783Z,37.35
2023-01-27T14:36:54.398Z,41.65
2023-01-27T14:38:09.739Z,39.67
2023-01-27T14:39:24.699Z,39.63
2023-01-27T14:40:32.272Z,38.13
2023-01-27T14:41:43.905Z,40.17